Search for airport 
image banner adimage banner adimage banner ad
image banner ad

KRBL - Red Bluff Muni

Located in Red Bluff, United States

ICAO - RBL, IATA -

Data provided by Airmate  

General information

Coordinates: N40°9'1" W122°15'8"
Elevation is 352 feet MSL.
Magnetic variation is 17° East
View others Airports in California

Operational data

Special qualification required
Current time UTC:
Current local time:
Weather
METAR: KRBL 260954Z AUTO 12004KT 10SM CLR 19/11 A2991 RMK AO2 SLP124 T01890106
TAF: KRBL 260537Z 2606/2706 17004KT P6SM BKN250 FM262100 16011KT P6SM SCT250
View NOTAMs / SUP AIP / TFR affecting this airport [VIEW]
Communications frequencies: [VIEW]

Runways:

RWY identifierQFULength (ft)Width (ft)SurfaceLDA (ft)
15168°5431100ASPH
33348°5431100ASPH

Airport contact information

Address: Red Bluff United States

Satellite view of KRBL